sensor_id;sensor_type;location;lat;lon;timestamp;pressure;altitude;pressure_sealevel;temperature;humidity
61682;BME280;47577;43.610;25.010;2023-02-02T00:01:40;100466.72;;;4.18;63.96
61682;BME280;47577;43.610;25.010;2023-02-02T00:04:06;100457.09;;;4.12;65.57
61682;BME280;47577;43.610;25.010;2023-02-02T00:06:33;100458.88;;;4.10;65.53
61682;BME280;47577;43.610;25.010;2023-02-02T00:09:00;100473.75;;;4.13;66.23
61682;BME280;47577;43.610;25.010;2023-02-02T00:11:26;100478.16;;;4.09;67.17
61682;BME280;47577;43.610;25.010;2023-02-02T00:13:52;100469.44;;;4.04;67.62
61682;BME280;47577;43.610;25.010;2023-02-02T00:18:56;100458.06;;;3.97;68.36
61682;BME280;47577;43.610;25.010;2023-02-02T00:21:22;100467.78;;;3.86;69.36
61682;BME280;47577;43.610;25.010;2023-02-02T00:23:48;100461.63;;;3.89;70.28
61682;BME280;47577;43.610;25.010;2023-02-02T00:26:14;100452.84;;;3.94;69.97
61682;BME280;47577;43.610;25.010;2023-02-02T00:28:40;100461.59;;;3.90;69.59
61682;BME280;47577;43.610;25.010;2023-02-02T00:31:06;100431.84;;;3.83;69.87
61682;BME280;47577;43.610;25.010;2023-02-02T00:33:31;100437.16;;;3.74;69.48
61682;BME280;47577;43.610;25.010;2023-02-02T00:35:57;100426.72;;;3.57;70.21
61682;BME280;47577;43.610;25.010;2023-02-02T00:38:23;100423.25;;;3.46;70.69
61682;BME280;47577;43.610;25.010;2023-02-02T00:40:49;100432.00;;;3.48;71.29
61682;BME280;47577;43.610;25.010;2023-02-02T00:43:15;100438.19;;;3.39;70.13
61682;BME280;47577;43.610;25.010;2023-02-02T00:45:40;100436.47;;;3.29;70.80
61682;BME280;47577;43.610;25.010;2023-02-02T00:48:06;100433.84;;;3.31;70.73
61682;BME280;47577;43.610;25.010;2023-02-02T00:50:36;100443.47;;;3.28;70.33
61682;BME280;47577;43.610;25.010;2023-02-02T00:53:02;100441.75;;;3.27;71.21
61682;BME280;47577;43.610;25.010;2023-02-02T00:55:27;100440.91;;;3.18;71.74
61682;BME280;47577;43.610;25.010;2023-02-02T00:57:53;100431.28;;;3.09;71.14
61682;BME280;47577;43.610;25.010;2023-02-02T01:00:24;100428.69;;;3.00;71.66
61682;BME280;47577;43.610;25.010;2023-02-02T01:02:51;100440.94;;;3.01;71.79
61682;BME280;47577;43.610;25.010;2023-02-02T01:05:17;100435.69;;;2.95;72.34
61682;BME280;47577;43.610;25.010;2023-02-02T01:07:44;100433.97;;;2.81;72.68
61682;BME280;47577;43.610;25.010;2023-02-02T01:10:15;100443.59;;;2.82;72.70
61682;BME280;47577;43.610;25.010;2023-02-02T01:12:41;100437.47;;;2.72;72.49
61682;BME280;47577;43.610;25.010;2023-02-02T01:15:06;100425.22;;;2.65;72.10
61682;BME280;47577;43.610;25.010;2023-02-02T01:17:33;100443.59;;;2.61;72.57
61682;BME280;47577;43.610;25.010;2023-02-02T01:19:58;100445.34;;;2.57;72.69
61682;BME280;47577;43.610;25.010;2023-02-02T01:22:24;100441.84;;;2.50;73.03
61682;BME280;47577;43.610;25.010;2023-02-02T01:24:51;100441.00;;;2.50;73.32
61682;BME280;47577;43.610;25.010;2023-02-02T01:27:16;100441.84;;;2.47;73.26
61682;BME280;47577;43.610;25.010;2023-02-02T01:29:42;100437.50;;;2.43;72.71
61682;BME280;47577;43.610;25.010;2023-02-02T01:32:08;100437.50;;;2.35;74.02
61682;BME280;47577;43.610;25.010;2023-02-02T01:34:34;100438.34;;;2.30;73.35
61682;BME280;47577;43.610;25.010;2023-02-02T01:36:59;100429.59;;;2.28;74.27
61682;BME280;47577;43.610;25.010;2023-02-02T01:39:25;100424.34;;;2.23;74.27
61682;BME280;47577;43.610;25.010;2023-02-02T01:41:51;100414.75;;;2.25;74.38
61682;BME280;47577;43.610;25.010;2023-02-02T02:03:01;100400.75;;;2.28;75.31
61682;BME280;47577;43.610;25.010;2023-02-02T02:05:37;100395.50;;;2.23;74.62
61682;BME280;47577;43.610;25.010;2023-02-02T02:08:16;100381.50;;;2.13;75.67
61682;BME280;47577;43.610;25.010;2023-02-02T02:10:42;100378.88;;;1.96;75.53
61682;BME280;47577;43.610;25.010;2023-02-02T02:13:08;100387.63;;;2.09;74.76
61682;BME280;47577;43.610;25.010;2023-02-02T02:15:51;100425.22;;;2.31;75.71
61682;BME280;47577;43.610;25.010;2023-02-02T02:19:13;100427.00;;;2.40;75.00
61682;BME280;47577;43.610;25.010;2023-02-02T02:22:12;100419.13;;;2.35;75.65
61682;BME280;47577;43.610;25.010;2023-02-02T02:36:18;100423.50;;;2.30;75.72
61682;BME280;47577;43.610;25.010;2023-02-02T02:39:19;100425.22;;;2.37;76.09
61682;BME280;47577;43.610;25.010;2023-02-02T02:41:49;100425.25;;;2.42;75.88
61682;BME280;47577;43.610;25.010;2023-02-02T02:44:17;100427.00;;;2.42;75.80
61682;BME280;47577;43.610;25.010;2023-02-02T02:46:44;100423.47;;;2.49;75.50
61682;BME280;47577;43.610;25.010;2023-02-02T02:49:11;100422.59;;;2.59;75.16
61682;BME280;47577;43.610;25.010;2023-02-02T02:51:49;100423.47;;;2.69;74.68
61682;BME280;47577;43.610;25.010;2023-02-02T02:54:18;100425.22;;;2.82;74.40
61682;BME280;47577;43.610;25.010;2023-02-02T03:05:00;100411.09;;;3.22;71.69
61682;BME280;47577;43.610;25.010;2023-02-02T03:07:37;100427.69;;;3.36;71.31
61682;BME280;47577;43.610;25.010;2023-02-02T03:10:08;100425.06;;;3.33;71.40
61682;BME280;47577;43.610;25.010;2023-02-02T03:12:43;100416.28;;;3.40;71.66
61682;BME280;47577;43.610;25.010;2023-02-02T03:15:10;100420.66;;;3.38;71.49
61682;BME280;47577;43.610;25.010;2023-02-02T03:17:35;100421.59;;;3.28;71.95
61682;BME280;47577;43.610;25.010;2023-02-02T03:20:01;100412.88;;;3.10;73.11
61682;BME280;47577;43.610;25.010;2023-02-02T03:22:27;100405.00;;;3.10;73.13
61682;BME280;47577;43.610;25.010;2023-02-02T03:24:52;100419.91;;;2.98;74.28
61682;BME280;47577;43.610;25.010;2023-02-02T03:27:19;100419.91;;;3.04;73.67
61682;BME280;47577;43.610;25.010;2023-02-02T03:29:44;100423.38;;;3.04;73.33
61682;BME280;47577;43.610;25.010;2023-02-02T03:32:10;100414.66;;;3.01;73.65
61682;BME280;47577;43.610;25.010;2023-02-02T03:34:35;100405.91;;;2.94;72.35
61682;BME280;47577;43.610;25.010;2023-02-02T03:37:01;100402.38;;;3.10;72.85
61682;BME280;47577;43.610;25.010;2023-02-02T03:39:27;100402.38;;;3.09;72.31
61682;BME280;47577;43.610;25.010;2023-02-02T03:41:53;100404.97;;;3.17;71.58
61682;BME280;47577;43.610;25.010;2023-02-02T03:44:18;100404.09;;;3.19;71.88
61682;BME280;47577;43.610;25.010;2023-02-02T03:46:44;100388.34;;;3.15;71.77
61682;BME280;47577;43.610;25.010;2023-02-02T03:49:09;100405.81;;;3.26;71.35
61682;BME280;47577;43.610;25.010;2023-02-02T03:51:35;100398.81;;;3.24;71.42
61682;BME280;47577;43.610;25.010;2023-02-02T03:54:01;100395.31;;;3.22;70.78
61682;BME280;47577;43.610;25.010;2023-02-02T03:56:27;100401.44;;;3.24;71.19
61682;BME280;47577;43.610;25.010;2023-02-02T03:58:52;100403.16;;;3.33;70.57
61682;BME280;47577;43.610;25.010;2023-02-02T04:01:26;100390.03;;;3.34;70.85
61682;BME280;47577;43.610;25.010;2023-02-02T04:03:53;100391.75;;;3.37;69.97
61682;BME280;47577;43.610;25.010;2023-02-02T04:06:19;100393.50;;;3.41;70.69
61682;BME280;47577;43.610;25.010;2023-02-02T04:08:46;100395.28;;;3.34;70.04
61682;BME280;47577;43.610;25.010;2023-02-02T04:11:12;100403.13;;;3.42;69.92
61682;BME280;47577;43.610;25.010;2023-02-02T04:13:38;100410.09;;;3.54;69.71
61682;BME280;47577;43.610;25.010;2023-02-02T04:16:05;100408.28;;;3.63;69.35
61682;BME280;47577;43.610;25.010;2023-02-02T04:18:32;100401.25;;;3.64;68.89
61682;BME280;47577;43.610;25.010;2023-02-02T04:20:59;100406.50;;;3.70;67.79
61682;BME280;47577;43.610;25.010;2023-02-02T04:23:27;100405.59;;;3.76;68.19
61682;BME280;47577;43.610;25.010;2023-02-02T04:25:53;100420.44;;;3.83;67.56
61682;BME280;47577;43.610;25.010;2023-02-02T04:28:20;100414.31;;;3.82;67.56
61682;BME280;47577;43.610;25.010;2023-02-02T04:30:48;100407.31;;;3.78;67.63
61682;BME280;47577;43.610;25.010;2023-02-02T04:33:14;100422.19;;;3.86;67.44
61682;BME280;47577;43.610;25.010;2023-02-02T04:35:41;100431.84;;;3.82;66.98
61682;BME280;47577;43.610;25.010;2023-02-02T04:38:07;100430.13;;;3.81;67.26
61682;BME280;47577;43.610;25.010;2023-02-02T04:40:33;100424.88;;;3.78;68.21
61682;BME280;47577;43.610;25.010;2023-02-02T04:43:02;100417.00;;;3.76;68.32
61682;BME280;47577;43.610;25.010;2023-02-02T04:45:28;100413.44;;;3.82;67.86
61682;BME280;47577;43.610;25.010;2023-02-02T04:47:53;100423.13;;;3.74;68.73
61682;BME280;47577;43.610;25.010;2023-02-02T04:50:19;100419.66;;;3.69;68.95
61682;BME280;47577;43.610;25.010;2023-02-02T04:52:45;100426.69;;;3.65;69.33
61682;BME280;47577;43.610;25.010;2023-02-02T04:55:10;100420.56;;;3.61;69.38
61682;BME280;47577;43.610;25.010;2023-02-02T04:57:36;100411.75;;;3.72;68.99
61682;BME280;47577;43.610;25.010;2023-02-02T05:00:02;100421.44;;;3.63;68.67
61682;BME280;47577;43.610;25.010;2023-02-02T05:02:28;100430.19;;;3.65;69.59
61682;BME280;47577;43.610;25.010;2023-02-02T05:04:54;100425.81;;;3.64;68.83
61682;BME280;47577;43.610;25.010;2023-02-02T05:07:19;100423.22;;;3.61;69.23
61682;BME280;47577;43.610;25.010;2023-02-02T05:09:45;100437.22;;;3.60;69.01
61682;BME280;47577;43.610;25.010;2023-02-02T05:12:11;100426.75;;;3.45;69.56
61682;BME280;47577;43.610;25.010;2023-02-02T05:14:36;100428.50;;;3.49;69.83
61682;BME280;47577;43.610;25.010;2023-02-02T05:17:02;100437.25;;;3.50;70.18
61682;BME280;47577;43.610;25.010;2023-02-02T05:19:27;100437.28;;;3.46;69.60
61682;BME280;47577;43.610;25.010;2023-02-02T05:21:53;100439.03;;;3.47;70.17
61682;BME280;47577;43.610;25.010;2023-02-02T05:24:20;100417.16;;;3.38;69.89
61682;BME280;47577;43.610;25.010;2023-02-02T05:26:45;100432.91;;;3.48;70.29
61682;BME280;47577;43.610;25.010;2023-02-02T05:29:11;100418.94;;;3.29;70.69
61682;BME280;47577;43.610;25.010;2023-02-02T05:31:37;100431.16;;;3.40;70.81
61682;BME280;47577;43.610;25.010;2023-02-02T05:34:03;100418.91;;;3.42;70.48
61682;BME280;47577;43.610;25.010;2023-02-02T05:36:31;100432.06;;;3.43;69.91
61682;BME280;47577;43.610;25.010;2023-02-02T05:38:56;100427.66;;;3.42;70.09
61682;BME280;47577;43.610;25.010;2023-02-02T05:41:22;100426.81;;;3.40;69.97
61682;BME280;47577;43.610;25.010;2023-02-02T05:43:48;100431.13;;;3.49;69.74
61682;BME280;47577;43.610;25.010;2023-02-02T05:46:14;100431.16;;;3.44;69.39
61682;BME280;47577;43.610;25.010;2023-02-02T05:48:40;100446.94;;;3.43;69.78
61682;BME280;47577;43.610;25.010;2023-02-02T05:53:43;100443.34;;;3.56;69.79
61682;BME280;47577;43.610;25.010;2023-02-02T05:56:12;100452.16;;;3.57;69.70
61682;BME280;47577;43.610;25.010;2023-02-02T05:58:41;100457.41;;;3.55;69.18
61682;BME280;47577;43.610;25.010;2023-02-02T06:01:08;100464.38;;;3.61;69.09
61682;BME280;47577;43.610;25.010;2023-02-02T06:03:34;100459.09;;;3.70;68.06
61682;BME280;47577;43.610;25.010;2023-02-02T06:06:00;100464.34;;;3.69;68.06
61682;BME280;47577;43.610;25.010;2023-02-02T06:08:25;100457.31;;;3.69;67.55
61682;BME280;47577;43.610;25.010;2023-02-02T06:10:51;100461.69;;;3.78;67.27
61682;BME280;47577;43.610;25.010;2023-02-02T06:13:17;100463.38;;;3.87;66.85
61682;BME280;47577;43.610;25.010;2023-02-02T06:15:43;100466.09;;;3.71;67.32
61682;BME280;47577;43.610;25.010;2023-02-02T06:18:09;100455.56;;;3.76;66.83
61682;BME280;47577;43.610;25.010;2023-02-02T06:20:35;100452.00;;;3.83;67.46
61682;BME280;47577;43.610;25.010;2023-02-02T06:23:01;100445.91;;;3.81;67.64
61682;BME280;47577;43.610;25.010;2023-02-02T06:25:27;100455.53;;;3.80;67.43
61682;BME280;47577;43.610;25.010;2023-02-02T06:27:59;100455.50;;;3.87;67.44
61682;BME280;47577;43.610;25.010;2023-02-02T06:30:26;100453.78;;;3.82;67.85
61682;BME280;47577;43.610;25.010;2023-02-02T06:32:52;100457.31;;;3.72;67.83
61682;BME280;47577;43.610;25.010;2023-02-02T06:35:18;100453.72;;;3.87;68.18
61682;BME280;47577;43.610;25.010;2023-02-02T06:37:44;100455.47;;;3.96;67.85
61682;BME280;47577;43.610;25.010;2023-02-02T06:40:10;100444.06;;;3.95;68.21
61682;BME280;47577;43.610;25.010;2023-02-02T06:42:38;100455.41;;;4.02;67.46
61682;BME280;47577;43.610;25.010;2023-02-02T06:45:04;100446.75;;;3.86;67.13
61682;BME280;47577;43.610;25.010;2023-02-02T06:47:32;100458.91;;;4.04;67.67
61682;BME280;47577;43.610;25.010;2023-02-02T06:49:57;100451.97;;;3.92;67.93
61682;BME280;47577;43.610;25.010;2023-02-02T06:52:23;100469.44;;;4.06;67.14
61682;BME280;47577;43.610;25.010;2023-02-02T06:54:48;100461.56;;;3.99;67.39
61682;BME280;47577;43.610;25.010;2023-02-02T06:57:15;100471.19;;;4.03;66.89
61682;BME280;47577;43.610;25.010;2023-02-02T06:59:41;100468.59;;;3.97;66.14
61682;BME280;47577;43.610;25.010;2023-02-02T07:02:10;100474.72;;;3.99;66.85
61682;BME280;47577;43.610;25.010;2023-02-02T07:04:37;100484.34;;;4.07;66.69
61682;BME280;47577;43.610;25.010;2023-02-02T07:07:03;100491.31;;;4.15;66.05
61682;BME280;47577;43.610;25.010;2023-02-02T07:09:31;100493.91;;;4.21;65.95
61682;BME280;47577;43.610;25.010;2023-02-02T07:11:57;100499.16;;;4.20;65.73
61682;BME280;47577;43.610;25.010;2023-02-02T07:14:23;100484.25;;;4.22;65.12
61682;BME280;47577;43.610;25.010;2023-02-02T07:16:49;100501.75;;;4.28;66.23
61682;BME280;47577;43.610;25.010;2023-02-02T07:19:15;100484.22;;;4.25;67.18
61682;BME280;47577;43.610;25.010;2023-02-02T07:21:40;100485.00;;;4.38;65.84
61682;BME280;47577;43.610;25.010;2023-02-02T07:24:07;100481.53;;;4.36;65.81
61682;BME280;47577;43.610;25.010;2023-02-02T07:26:34;100497.22;;;4.48;65.82
61682;BME280;47577;43.610;25.010;2023-02-02T07:29:00;100484.03;;;4.48;65.34
61682;BME280;47577;43.610;25.010;2023-02-02T07:31:26;100492.94;;;4.35;65.73
61682;BME280;47577;43.610;25.010;2023-02-02T07:33:52;100500.84;;;4.30;65.69
61682;BME280;47577;43.610;25.010;2023-02-02T07:36:21;100495.50;;;4.44;66.46
61682;BME280;47577;43.610;25.010;2023-02-02T07:38:50;100507.72;;;4.54;65.66
61682;BME280;47577;43.610;25.010;2023-02-02T07:41:15;100512.13;;;4.54;65.61
61682;BME280;47577;43.610;25.010;2023-02-02T07:43:41;100499.78;;;4.56;66.05
61682;BME280;47577;43.610;25.010;2023-02-02T07:46:09;100495.28;;;4.72;65.42
61682;BME280;47577;43.610;25.010;2023-02-02T07:48:36;100501.56;;;4.57;64.10
61682;BME280;47577;43.610;25.010;2023-02-02T07:51:06;100488.19;;;4.80;63.87
61682;BME280;47577;43.610;25.010;2023-02-02T07:53:32;100496.91;;;4.87;63.80
61682;BME280;47577;43.610;25.010;2023-02-02T07:56:08;100495.16;;;4.84;63.24
61682;BME280;47577;43.610;25.010;2023-02-02T07:58:36;100487.06;;;5.07;62.95
61682;BME280;47577;43.610;25.010;2023-02-02T08:01:03;100477.09;;;5.34;62.66
61682;BME280;47577;43.610;25.010;2023-02-02T08:03:29;100478.66;;;5.54;62.76
61682;BME280;47577;43.610;25.010;2023-02-02T08:05:56;100465.09;;;5.81;62.83
61682;BME280;47577;43.610;25.010;2023-02-02T08:08:22;100466.47;;;6.13;60.92
61682;BME280;47577;43.610;25.010;2023-02-02T08:10:51;100475.00;;;6.32;59.07
61682;BME280;47577;43.610;25.010;2023-02-02T08:13:18;100453.75;;;6.40;58.42
61682;BME280;47577;43.610;25.010;2023-02-02T08:15:44;100457.09;;;6.51;58.52
61682;BME280;47577;43.610;25.010;2023-02-02T08:18:10;100446.94;;;6.78;57.31
61682;BME280;47577;43.610;25.010;2023-02-02T08:20:36;100446.00;;;6.82;57.69
61682;BME280;47577;43.610;25.010;2023-02-02T08:23:01;100442.13;;;7.02;57.23
61682;BME280;47577;43.610;25.010;2023-02-02T08:25:27;100447.81;;;7.27;56.14
61682;BME280;47577;43.610;25.010;2023-02-02T08:27:54;100446.94;;;7.26;54.86
61682;BME280;47577;43.610;25.010;2023-02-02T08:30:20;100459.16;;;7.33;54.08
61682;BME280;47577;43.610;25.010;2023-02-02T08:32:46;100455.56;;;7.38;55.34
61682;BME280;47577;43.610;25.010;2023-02-02T08:35:11;100459.03;;;7.40;54.53
61682;BME280;47577;43.610;25.010;2023-02-02T08:37:38;100456.84;;;7.62;53.72
61682;BME280;47577;43.610;25.010;2023-02-02T08:40:04;100459.91;;;7.84;53.80
61682;BME280;47577;43.610;25.010;2023-02-02T08:42:30;100447.13;;;8.01;52.95
61682;BME280;47577;43.610;25.010;2023-02-02T08:44:55;100458.59;;;8.03;53.00
61682;BME280;47577;43.610;25.010;2023-02-02T08:47:21;100459.03;;;7.82;51.07
61682;BME280;47577;43.610;25.010;2023-02-02T08:49:48;100445.69;;;7.88;52.61
61682;BME280;47577;43.610;25.010;2023-02-02T08:52:13;100461.41;;;7.96;51.63
61682;BME280;47577;43.610;25.010;2023-02-02T08:54:39;100464.75;;;8.04;51.13
61682;BME280;47577;43.610;25.010;2023-02-02T08:57:05;100464.56;;;8.13;51.72
61682;BME280;47577;43.610;25.010;2023-02-02T08:59:30;100474.91;;;8.22;50.53
61682;BME280;47577;43.610;25.010;2023-02-02T09:01:56;100479.03;;;7.95;49.93
61682;BME280;47577;43.610;25.010;2023-02-02T09:04:22;100487.28;;;7.83;51.46
61682;BME280;47577;43.610;25.010;2023-02-02T09:06:47;100471.50;;;7.77;51.03
61682;BME280;47577;43.610;25.010;2023-02-02T09:09:15;100476.66;;;7.84;50.30
61682;BME280;47577;43.610;25.010;2023-02-02T09:11:41;100473.25;;;7.78;50.37
61682;BME280;47577;43.610;25.010;2023-02-02T09:14:09;100464.50;;;7.74;50.93
61682;BME280;47577;43.610;25.010;2023-02-02T09:16:35;100448.72;;;7.71;50.68
61682;BME280;47577;43.610;25.010;2023-02-02T09:19:01;100461.97;;;7.69;51.62
61682;BME280;47577;43.610;25.010;2023-02-02T09:21:27;100459.56;;;7.57;51.81
61682;BME280;47577;43.610;25.010;2023-02-02T09:23:53;100465.19;;;7.84;51.79
61682;BME280;47577;43.610;25.010;2023-02-02T09:26:24;100447.84;;;7.69;52.39
61682;BME280;47577;43.610;25.010;2023-02-02T09:28:53;100450.72;;;7.60;52.69
61682;BME280;47577;43.610;25.010;2023-02-02T09:31:19;100450.50;;;7.69;51.51
61682;BME280;47577;43.610;25.010;2023-02-02T09:33:48;100460.91;;;7.78;51.85
61682;BME280;47577;43.610;25.010;2023-02-02T09:36:16;100445.75;;;7.85;52.20
61682;BME280;47577;43.610;25.010;2023-02-02T09:38:42;100452.09;;;7.78;51.57
61682;BME280;47577;43.610;25.010;2023-02-02T09:41:32;100434.97;;;7.94;52.27
61682;BME280;47577;43.610;25.010;2023-02-02T09:53:34;100404.31;;;8.21;50.61
61682;BME280;47577;43.610;25.010;2023-02-02T09:55:42;100381.97;;;8.33;51.21
61682;BME280;47577;43.610;25.010;2023-02-02T10:03:30;100388.88;;;8.39;49.16
61682;BME280;47577;43.610;25.010;2023-02-02T10:08:51;100374.72;;;8.40;48.23
61682;BME280;47577;43.610;25.010;2023-02-02T10:14:24;100364.38;;;8.67;49.19
61682;BME280;47577;43.610;25.010;2023-02-02T10:16:53;100352.38;;;8.85;47.93
61682;BME280;47577;43.610;25.010;2023-02-02T10:19:23;100367.09;;;8.96;48.09
61682;BME280;47577;43.610;25.010;2023-02-02T10:21:59;100373.84;;;9.07;45.98
61682;BME280;47577;43.610;25.010;2023-02-02T10:24:30;100367.50;;;9.14;47.08
61682;BME280;47577;43.610;25.010;2023-02-02T10:26:57;100356.22;;;9.06;45.15
61682;BME280;47577;43.610;25.010;2023-02-02T10:29:57;100350.78;;;9.10;46.41
61682;BME280;47577;43.610;25.010;2023-02-02T10:32:33;100355.00;;;9.18;45.43
61682;BME280;47577;43.610;25.010;2023-02-02T10:45:49;100361.97;;;9.22;46.64
61682;BME280;47577;43.610;25.010;2023-02-02T10:48:18;100364.38;;;9.29;47.46
61682;BME280;47577;43.610;25.010;2023-02-02T10:50:48;100371.00;;;9.14;46.13
61682;BME280;47577;43.610;25.010;2023-02-02T10:53:15;100376.34;;;9.13;46.03
61682;BME280;47577;43.610;25.010;2023-02-02T10:55:55;100355.56;;;9.29;45.52
61682;BME280;47577;43.610;25.010;2023-02-02T10:58:49;100358.75;;;9.10;45.58
61682;BME280;47577;43.610;25.010;2023-02-02T11:01:17;100352.84;;;9.30;46.31
61682;BME280;47577;43.610;25.010;2023-02-02T11:03:47;100339.25;;;9.11;46.23
61682;BME280;47577;43.610;25.010;2023-02-02T11:06:14;100343.13;;;9.00;47.86
61682;BME280;47577;43.610;25.010;2023-02-02T11:08:58;100336.50;;;9.14;47.85
61682;BME280;47577;43.610;25.010;2023-02-02T11:11:29;100332.31;;;9.07;47.77
61682;BME280;47577;43.610;25.010;2023-02-02T11:16:36;100340.94;;;8.83;49.65
61682;BME280;47577;43.610;25.010;2023-02-02T11:21:53;100364.22;;;8.71;49.07
61682;BME280;47577;43.610;25.010;2023-02-02T11:24:21;100340.47;;;8.32;50.59
61682;BME280;47577;43.610;25.010;2023-02-02T11:29:40;100353.25;;;8.16;51.78
61682;BME280;47577;43.610;25.010;2023-02-02T11:35:19;100388.59;;;7.76;53.37
61682;BME280;47577;43.610;25.010;2023-02-02T11:40:37;100351.81;;;7.64;55.13
61682;BME280;47577;43.610;25.010;2023-02-02T11:43:13;100374.84;;;7.59;55.57
61682;BME280;47577;43.610;25.010;2023-02-02T11:45:43;100393.91;;;7.34;59.56
61682;BME280;47577;43.610;25.010;2023-02-02T11:48:15;100377.41;;;6.76;62.44
61682;BME280;47577;43.610;25.010;2023-02-02T11:50:54;100385.97;;;6.39;63.97
61682;BME280;47577;43.610;25.010;2023-02-02T11:53:46;100378.97;;;6.36;65.58
61682;BME280;47577;43.610;25.010;2023-02-02T11:56:21;100413.47;;;6.27;66.52
61682;BME280;47577;43.610;25.010;2023-02-02T11:58:49;100424.34;;;6.04;69.31
61682;BME280;47577;43.610;25.010;2023-02-02T12:01:30;100434.63;;;5.59;73.28
61682;BME280;47577;43.610;25.010;2023-02-02T12:04:01;100455.28;;;5.21;78.01
61682;BME280;47577;43.610;25.010;2023-02-02T12:06:37;100438.34;;;4.58;80.71
61682;BME280;47577;43.610;25.010;2023-02-02T12:09:15;100448.13;;;4.43;83.23
61682;BME280;47577;43.610;25.010;2023-02-02T12:11:59;100450.66;;;4.52;84.64
61682;BME280;47577;43.610;25.010;2023-02-02T12:17:18;100431.56;;;4.28;84.70
61682;BME280;47577;43.610;25.010;2023-02-02T12:30:56;100371.78;;;4.43;86.37
61682;BME280;47577;43.610;25.010;2023-02-02T12:33:45;100362.28;;;4.21;87.08
61682;BME280;47577;43.610;25.010;2023-02-02T12:41:16;100324.63;;;4.16;89.30
61682;BME280;47577;43.610;25.010;2023-02-02T12:44:12;100315.03;;;4.06;87.62
61682;BME280;47577;43.610;25.010;2023-02-02T12:49:51;100318.50;;;4.13;86.80
61682;BME280;47577;43.610;25.010;2023-02-02T12:58:41;100306.13;;;4.22;84.23
61682;BME280;47577;43.610;25.010;2023-02-02T13:01:17;100305.22;;;4.28;83.09
61682;BME280;47577;43.610;25.010;2023-02-02T13:08:50;100324.25;;;4.53;80.01
61682;BME280;47577;43.610;25.010;2023-02-02T13:11:30;100339.13;;;4.59;77.88
61682;BME280;47577;43.610;25.010;2023-02-02T13:14:00;100346.09;;;4.63;77.70
61682;BME280;47577;43.610;25.010;2023-02-02T13:16:31;100359.25;;;4.63;77.13
61682;BME280;47577;43.610;25.010;2023-02-02T13:19:23;100361.78;;;4.74;76.79
61682;BME280;47577;43.610;25.010;2023-02-02T13:21:55;100391.56;;;4.81;77.26
61682;BME280;47577;43.610;25.010;2023-02-02T13:24:26;100390.66;;;4.85;76.92
61682;BME280;47577;43.610;25.010;2023-02-02T13:26:57;100373.13;;;4.82;78.35
61682;BME280;47577;43.610;25.010;2023-02-02T13:32:23;100388.38;;;4.49;79.24
61682;BME280;47577;43.610;25.010;2023-02-02T13:40:04;100383.13;;;4.46;79.77
61682;BME280;47577;43.610;25.010;2023-02-02T13:45:54;100366.59;;;4.32;79.84
61682;BME280;47577;43.610;25.010;2023-02-02T13:51:28;100344.63;;;4.36;80.00
61682;BME280;47577;43.610;25.010;2023-02-02T13:56:53;100354.38;;;4.25;80.07
61682;BME280;47577;43.610;25.010;2023-02-02T13:59:50;100359.69;;;4.20;80.57
61682;BME280;47577;43.610;25.010;2023-02-02T14:02:26;100364.09;;;4.16;81.54
61682;BME280;47577;43.610;25.010;2023-02-02T14:04:56;100364.88;;;4.28;80.98
61682;BME280;47577;43.610;25.010;2023-02-02T14:07:27;100353.63;;;4.09;81.17
61682;BME280;47577;43.610;25.010;2023-02-02T14:09:56;100341.34;;;4.08;81.40
61682;BME280;47577;43.610;25.010;2023-02-02T14:12:28;100335.31;;;3.95;80.75
61682;BME280;47577;43.610;25.010;2023-02-02T14:14:55;100352.75;;;4.08;80.81
61682;BME280;47577;43.610;25.010;2023-02-02T14:19:48;100362.44;;;4.01;80.22
61682;BME280;47577;43.610;25.010;2023-02-02T14:24:43;100355.44;;;4.00;80.18
61682;BME280;47577;43.610;25.010;2023-02-02T14:29:39;100372.16;;;3.92;79.92
61682;BME280;47577;43.610;25.010;2023-02-02T14:34:58;100381.81;;;3.91;79.34
61682;BME280;47577;43.610;25.010;2023-02-02T14:40:09;100361.63;;;3.93;79.60
61682;BME280;47577;43.610;25.010;2023-02-02T14:51:23;100380.19;;;3.69;79.31
61682;BME280;47577;43.610;25.010;2023-02-02T14:54:01;100388.09;;;3.69;78.41
61682;BME280;47577;43.610;25.010;2023-02-02T14:56:45;100395.09;;;3.71;79.39
61682;BME280;47577;43.610;25.010;2023-02-02T14:59:18;100396.91;;;3.60;79.32
61682;BME280;47577;43.610;25.010;2023-02-02T15:02:13;100389.81;;;3.76;78.66
61682;BME280;47577;43.610;25.010;2023-02-02T15:04:39;100382.03;;;3.54;78.56
61682;BME280;47577;43.610;25.010;2023-02-02T15:09:53;100388.13;;;3.58;78.20
61682;BME280;47577;43.610;25.010;2023-02-02T15:12:31;100385.50;;;3.58;78.20
61682;BME280;47577;43.610;25.010;2023-02-02T15:20:23;100390.84;;;3.44;77.45
61682;BME280;47577;43.610;25.010;2023-02-02T15:23:28;100394.34;;;3.41;77.43
61682;BME280;47577;43.610;25.010;2023-02-02T15:26:05;100396.16;;;3.35;77.43
61682;BME280;47577;43.610;25.010;2023-02-02T15:31:26;100408.34;;;3.45;76.27
61682;BME280;47577;43.610;25.010;2023-02-02T15:33:58;100415.41;;;3.40;77.58
61682;BME280;47577;43.610;25.010;2023-02-02T15:36:30;100428.59;;;3.24;76.44
61682;BME280;47577;43.610;25.010;2023-02-02T15:39:09;100433.00;;;3.18;77.46
61682;BME280;47577;43.610;25.010;2023-02-02T15:41:42;100439.13;;;3.21;77.74
61682;BME280;47577;43.610;25.010;2023-02-02T15:44:26;100418.13;;;3.09;77.34
61682;BME280;47577;43.610;25.010;2023-02-02T15:46:53;100426.91;;;3.05;77.65
61682;BME280;47577;43.610;25.010;2023-02-02T15:49:26;100426.88;;;3.14;77.33
61682;BME280;47577;43.610;25.010;2023-02-02T15:51:57;100420.75;;;3.12;77.72
61682;BME280;47577;43.610;25.010;2023-02-02T15:54:27;100409.38;;;3.10;77.00